sensor_id;sensor_type;location;lat;lon;timestamp;pressure;altitude;pressure_sealevel;temperature;humidity
63739;BME280;68816;45.558;10.070;2023-07-22T00:01:11;99437.22;;;27.99;59.00
63739;BME280;68816;45.558;10.070;2023-07-22T00:03:36;99434.25;;;27.80;58.84
63739;BME280;68816;45.558;10.070;2023-07-22T00:06:10;99437.28;;;28.03;57.11
63739;BME280;68816;45.558;10.070;2023-07-22T00:08:36;99434.44;;;28.03;58.19
63739;BME280;68816;45.558;10.070;2023-07-22T00:11:03;99433.16;;;27.85;58.61
63739;BME280;68816;45.558;10.070;2023-07-22T00:13:29;99428.59;;;28.11;58.68
63739;BME280;68816;45.558;10.070;2023-07-22T00:15:55;99425.00;;;27.99;59.22
63739;BME280;68816;45.558;10.070;2023-07-22T00:18:21;99423.72;;;28.12;58.41
63739;BME280;68816;45.558;10.070;2023-07-22T00:20:47;99427.09;;;28.02;57.78
63739;BME280;68816;45.558;10.070;2023-07-22T00:23:13;99428.22;;;27.97;57.02
63739;BME280;68816;45.558;10.070;2023-07-22T00:25:40;99420.41;;;28.10;58.52
63739;BME280;68816;45.558;10.070;2023-07-22T00:28:06;99413.81;;;27.74;59.46
63739;BME280;68816;45.558;10.070;2023-07-22T00:30:32;99415.38;;;27.88;58.96
63739;BME280;68816;45.558;10.070;2023-07-22T00:32:58;99425.38;;;27.97;58.72
63739;BME280;68816;45.558;10.070;2023-07-22T00:35:23;99423.91;;;27.88;58.76
63739;BME280;68816;45.558;10.070;2023-07-22T00:37:49;99416.56;;;27.87;58.13
63739;BME280;68816;45.558;10.070;2023-07-22T00:40:15;99404.50;;;27.90;57.55
63739;BME280;68816;45.558;10.070;2023-07-22T00:42:41;99406.31;;;27.98;57.32
63739;BME280;68816;45.558;10.070;2023-07-22T00:45:07;99404.03;;;27.88;56.76
63739;BME280;68816;45.558;10.070;2023-07-22T00:47:34;99410.88;;;28.02;57.85
63739;BME280;68816;45.558;10.070;2023-07-22T00:50:03;99398.41;;;27.91;57.38
63739;BME280;68816;45.558;10.070;2023-07-22T00:52:29;99400.81;;;27.89;58.50
63739;BME280;68816;45.558;10.070;2023-07-22T00:54:55;99404.75;;;27.69;58.62
63739;BME280;68816;45.558;10.070;2023-07-22T00:57:21;99400.13;;;27.49;58.85
63739;BME280;68816;45.558;10.070;2023-07-22T00:59:47;99395.47;;;27.56;59.00
63739;BME280;68816;45.558;10.070;2023-07-22T01:02:13;99392.31;;;27.46;59.62
63739;BME280;68816;45.558;10.070;2023-07-22T01:04:39;99385.41;;;27.74;58.49
63739;BME280;68816;45.558;10.070;2023-07-22T01:07:05;99390.81;;;27.95;57.91
63739;BME280;68816;45.558;10.070;2023-07-22T01:09:37;99389.16;;;27.94;57.18
63739;BME280;68816;45.558;10.070;2023-07-22T01:12:04;99390.63;;;27.88;58.05
63739;BME280;68816;45.558;10.070;2023-07-22T01:14:34;99385.06;;;27.60;58.93
63739;BME280;68816;45.558;10.070;2023-07-22T01:17:05;99394.28;;;28.04;57.74
63739;BME280;68816;45.558;10.070;2023-07-22T01:19:31;99383.59;;;27.66;59.04
63739;BME280;68816;45.558;10.070;2023-07-22T01:21:59;99395.66;;;27.79;57.76
63739;BME280;68816;45.558;10.070;2023-07-22T01:24:25;99400.94;;;27.49;57.72
63739;BME280;68816;45.558;10.070;2023-07-22T01:26:51;99396.06;;;27.50;58.89
63739;BME280;68816;45.558;10.070;2023-07-22T01:29:17;99397.75;;;27.51;58.51
63739;BME280;68816;45.558;10.070;2023-07-22T01:31:46;99390.38;;;27.50;57.92
63739;BME280;68816;45.558;10.070;2023-07-22T01:34:12;99383.19;;;27.52;58.47
63739;BME280;68816;45.558;10.070;2023-07-22T01:36:37;99384.16;;;27.44;58.92
63739;BME280;68816;45.558;10.070;2023-07-22T01:39:03;99385.28;;;27.55;58.96
63739;BME280;68816;45.558;10.070;2023-07-22T01:41:31;99382.88;;;27.42;59.02
63739;BME280;68816;45.558;10.070;2023-07-22T01:43:56;99384.03;;;27.68;58.68
63739;BME280;68816;45.558;10.070;2023-07-22T01:46:22;99375.22;;;27.58;58.79
63739;BME280;68816;45.558;10.070;2023-07-22T01:48:47;99375.22;;;27.58;58.87
63739;BME280;68816;45.558;10.070;2023-07-22T01:51:13;99372.31;;;27.54;57.72
63739;BME280;68816;45.558;10.070;2023-07-22T01:53:38;99378.94;;;27.46;57.42
63739;BME280;68816;45.558;10.070;2023-07-22T01:56:04;99379.09;;;27.22;59.41
63739;BME280;68816;45.558;10.070;2023-07-22T01:58:30;99379.69;;;27.43;58.56
63739;BME280;68816;45.558;10.070;2023-07-22T02:00:56;99383.88;;;27.33;57.30
63739;BME280;68816;45.558;10.070;2023-07-22T02:03:21;99387.47;;;27.30;58.12
63739;BME280;68816;45.558;10.070;2023-07-22T02:05:47;99390.97;;;27.12;59.10
63739;BME280;68816;45.558;10.070;2023-07-22T02:08:12;99392.38;;;26.90;59.30
63739;BME280;68816;45.558;10.070;2023-07-22T02:10:37;99394.34;;;27.02;59.39
63739;BME280;68816;45.558;10.070;2023-07-22T02:13:03;99392.47;;;26.93;58.94
63739;BME280;68816;45.558;10.070;2023-07-22T02:15:30;99397.31;;;26.93;58.86
63739;BME280;68816;45.558;10.070;2023-07-22T02:17:56;99393.06;;;26.87;59.64
63739;BME280;68816;45.558;10.070;2023-07-22T02:20:22;99397.00;;;27.10;57.64
63739;BME280;68816;45.558;10.070;2023-07-22T02:22:47;99413.06;;;27.18;58.27
63739;BME280;68816;45.558;10.070;2023-07-22T02:25:13;99410.78;;;27.24;57.36
63739;BME280;68816;45.558;10.070;2023-07-22T02:27:40;99428.53;;;27.21;58.32
63739;BME280;68816;45.558;10.070;2023-07-22T02:30:07;99434.66;;;27.07;59.07
63739;BME280;68816;45.558;10.070;2023-07-22T02:32:37;99431.28;;;27.17;58.15
63739;BME280;68816;45.558;10.070;2023-07-22T02:35:03;99430.63;;;27.08;58.48
63739;BME280;68816;45.558;10.070;2023-07-22T02:37:28;99435.84;;;27.06;58.62
63739;BME280;68816;45.558;10.070;2023-07-22T02:39:54;99442.78;;;27.09;58.48
63739;BME280;68816;45.558;10.070;2023-07-22T02:42:20;99442.16;;;27.15;57.59
63739;BME280;68816;45.558;10.070;2023-07-22T02:44:46;99445.84;;;27.16;56.89
63739;BME280;68816;45.558;10.070;2023-07-22T02:47:11;99447.84;;;27.15;58.38
63739;BME280;68816;45.558;10.070;2023-07-22T02:49:37;99455.00;;;26.97;58.58
63739;BME280;68816;45.558;10.070;2023-07-22T02:52:03;99458.41;;;27.03;58.88
63739;BME280;68816;45.558;10.070;2023-07-22T02:54:28;99454.03;;;27.05;58.36
63739;BME280;68816;45.558;10.070;2023-07-22T02:56:54;99457.31;;;27.19;58.07
63739;BME280;68816;45.558;10.070;2023-07-22T02:59:19;99453.53;;;27.15;58.57
63739;BME280;68816;45.558;10.070;2023-07-22T03:01:45;99459.97;;;27.00;58.47
63739;BME280;68816;45.558;10.070;2023-07-22T03:04:10;99459.03;;;27.08;57.53
63739;BME280;68816;45.558;10.070;2023-07-22T03:06:37;99460.69;;;26.97;57.73
63739;BME280;68816;45.558;10.070;2023-07-22T03:09:03;99462.34;;;26.86;58.53
63739;BME280;68816;45.558;10.070;2023-07-22T03:11:30;99470.75;;;26.94;58.14
63739;BME280;68816;45.558;10.070;2023-07-22T03:13:55;99479.19;;;26.79;59.43
63739;BME280;68816;45.558;10.070;2023-07-22T03:16:21;99487.22;;;26.77;59.34
63739;BME280;68816;45.558;10.070;2023-07-22T03:18:46;99476.44;;;26.94;58.80
63739;BME280;68816;45.558;10.070;2023-07-22T03:21:12;99485.00;;;27.10;58.94
63739;BME280;68816;45.558;10.070;2023-07-22T03:23:37;99481.22;;;27.18;59.35
63739;BME280;68816;45.558;10.070;2023-07-22T03:26:03;99484.94;;;27.34;59.04
63739;BME280;68816;45.558;10.070;2023-07-22T03:28:28;99479.50;;;27.29;59.54
63739;BME280;68816;45.558;10.070;2023-07-22T03:30:54;99484.00;;;27.30;59.44
63739;BME280;68816;45.558;10.070;2023-07-22T03:33:20;99483.47;;;27.41;59.23
63739;BME280;68816;45.558;10.070;2023-07-22T03:35:45;99487.94;;;27.54;59.20
63739;BME280;68816;45.558;10.070;2023-07-22T03:38:11;99485.22;;;27.45;59.12
63739;BME280;68816;45.558;10.070;2023-07-22T03:40:36;99484.66;;;27.39;59.07
63739;BME280;68816;45.558;10.070;2023-07-22T03:43:03;99494.09;;;27.44;58.42
63739;BME280;68816;45.558;10.070;2023-07-22T03:45:28;99495.16;;;27.51;58.06
63739;BME280;68816;45.558;10.070;2023-07-22T03:47:57;99497.13;;;27.63;58.04
63739;BME280;68816;45.558;10.070;2023-07-22T03:50:23;99502.97;;;27.54;58.20
63739;BME280;68816;45.558;10.070;2023-07-22T03:52:49;99506.25;;;27.28;58.88
63739;BME280;68816;45.558;10.070;2023-07-22T03:55:14;99504.88;;;27.10;59.49
63739;BME280;68816;45.558;10.070;2023-07-22T03:57:40;99512.88;;;27.20;59.12
63739;BME280;68816;45.558;10.070;2023-07-22T04:00:07;99510.28;;;27.27;59.35
63739;BME280;68816;45.558;10.070;2023-07-22T04:02:36;99516.81;;;27.44;57.75
63739;BME280;68816;45.558;10.070;2023-07-22T04:05:01;99529.13;;;27.48;58.19
63739;BME280;68816;45.558;10.070;2023-07-22T04:07:27;99532.72;;;27.32;58.07
63739;BME280;68816;45.558;10.070;2023-07-22T04:09:52;99535.69;;;27.36;58.07
63739;BME280;68816;45.558;10.070;2023-07-22T04:12:18;99535.38;;;27.25;58.30
63739;BME280;68816;45.558;10.070;2023-07-22T04:14:43;99548.72;;;27.37;58.92
63739;BME280;68816;45.558;10.070;2023-07-22T04:17:09;99547.91;;;27.24;59.30
63739;BME280;68816;45.558;10.070;2023-07-22T04:19:34;99543.38;;;27.35;58.69
63739;BME280;68816;45.558;10.070;2023-07-22T04:22:00;99546.03;;;27.16;58.90
63739;BME280;68816;45.558;10.070;2023-07-22T04:24:32;99546.75;;;27.13;59.19
63739;BME280;68816;45.558;10.070;2023-07-22T04:26:57;99566.19;;;27.39;58.75
63739;BME280;68816;45.558;10.070;2023-07-22T04:29:23;99559.72;;;27.26;58.67
63739;BME280;68816;45.558;10.070;2023-07-22T04:31:48;99561.25;;;27.36;58.36
63739;BME280;68816;45.558;10.070;2023-07-22T04:34:14;99569.59;;;27.57;58.34
63739;BME280;68816;45.558;10.070;2023-07-22T04:36:40;99567.16;;;27.43;59.30
63739;BME280;68816;45.558;10.070;2023-07-22T04:39:05;99573.28;;;27.57;58.24
63739;BME280;68816;45.558;10.070;2023-07-22T04:41:31;99576.06;;;27.69;58.57
63739;BME280;68816;45.558;10.070;2023-07-22T04:43:57;99588.56;;;27.81;58.99
63739;BME280;68816;45.558;10.070;2023-07-22T04:46:24;99587.53;;;27.73;58.55
63739;BME280;68816;45.558;10.070;2023-07-22T04:48:51;99595.88;;;27.66;56.79
63739;BME280;68816;45.558;10.070;2023-07-22T04:51:16;99589.69;;;27.64;57.13
63739;BME280;68816;45.558;10.070;2023-07-22T04:53:42;99598.41;;;27.43;58.27
63739;BME280;68816;45.558;10.070;2023-07-22T04:56:07;99600.84;;;27.57;58.60
63739;BME280;68816;45.558;10.070;2023-07-22T04:58:33;99611.84;;;27.58;58.02
63739;BME280;68816;45.558;10.070;2023-07-22T05:00:58;99625.47;;;27.65;57.93
63739;BME280;68816;45.558;10.070;2023-07-22T05:03:23;99627.97;;;27.42;58.70
63739;BME280;68816;45.558;10.070;2023-07-22T05:05:51;99618.72;;;27.57;58.34
63739;BME280;68816;45.558;10.070;2023-07-22T05:08:17;99625.25;;;27.86;56.99
63739;BME280;68816;45.558;10.070;2023-07-22T05:10:43;99626.03;;;27.70;56.29
63739;BME280;68816;45.558;10.070;2023-07-22T05:13:08;99627.38;;;27.89;55.45
63739;BME280;68816;45.558;10.070;2023-07-22T05:15:34;99624.31;;;27.82;55.54
63739;BME280;68816;45.558;10.070;2023-07-22T05:17:59;99634.03;;;27.81;57.92
63739;BME280;68816;45.558;10.070;2023-07-22T05:20:25;99637.59;;;28.05;56.55
63739;BME280;68816;45.558;10.070;2023-07-22T05:22:50;99632.69;;;27.90;56.65
63739;BME280;68816;45.558;10.070;2023-07-22T05:25:16;99632.75;;;28.06;58.03
63739;BME280;68816;45.558;10.070;2023-07-22T05:27:41;99633.31;;;28.11;58.49
63739;BME280;68816;45.558;10.070;2023-07-22T05:30:07;99636.47;;;28.22;58.28
63739;BME280;68816;45.558;10.070;2023-07-22T05:32:33;99628.97;;;28.30;57.70
63739;BME280;68816;45.558;10.070;2023-07-22T05:34:59;99631.25;;;28.24;57.86
63739;BME280;68816;45.558;10.070;2023-07-22T05:37:25;99619.44;;;28.38;56.63
63739;BME280;68816;45.558;10.070;2023-07-22T05:39:51;99622.19;;;28.50;56.38
63739;BME280;68816;45.558;10.070;2023-07-22T05:42:17;99632.03;;;28.52;56.23
63739;BME280;68816;45.558;10.070;2023-07-22T05:44:43;99631.19;;;28.36;55.05
63739;BME280;68816;45.558;10.070;2023-07-22T05:47:09;99627.94;;;28.22;56.41
63739;BME280;68816;45.558;10.070;2023-07-22T05:49:35;99630.09;;;28.41;55.29
63739;BME280;68816;45.558;10.070;2023-07-22T05:52:00;99623.28;;;28.30;56.47
63739;BME280;68816;45.558;10.070;2023-07-22T05:54:26;99631.75;;;28.42;57.27
63739;BME280;68816;45.558;10.070;2023-07-22T05:56:51;99625.22;;;28.57;55.30
63739;BME280;68816;45.558;10.070;2023-07-22T05:59:17;99623.81;;;28.19;56.06
63739;BME280;68816;45.558;10.070;2023-07-22T06:01:42;99618.31;;;28.27;56.62
63739;BME280;68816;45.558;10.070;2023-07-22T06:04:08;99621.47;;;28.53;57.13
63739;BME280;68816;45.558;10.070;2023-07-22T06:06:35;99641.84;;;28.55;55.85
63739;BME280;68816;45.558;10.070;2023-07-22T06:09:00;99649.94;;;28.84;56.48
63739;BME280;68816;45.558;10.070;2023-07-22T06:11:26;99637.56;;;28.92;55.41
63739;BME280;68816;45.558;10.070;2023-07-22T06:13:51;99638.13;;;28.82;54.95
63739;BME280;68816;45.558;10.070;2023-07-22T06:16:16;99642.03;;;28.62;54.54
63739;BME280;68816;45.558;10.070;2023-07-22T06:18:42;99641.88;;;28.71;55.76
63739;BME280;68816;45.558;10.070;2023-07-22T06:21:08;99647.56;;;28.86;55.28
63739;BME280;68816;45.558;10.070;2023-07-22T06:23:33;99638.84;;;28.79;55.63
63739;BME280;68816;45.558;10.070;2023-07-22T06:25:59;99643.63;;;28.91;55.36
63739;BME280;68816;45.558;10.070;2023-07-22T06:28:24;99643.16;;;29.05;56.58
63739;BME280;68816;45.558;10.070;2023-07-22T06:30:50;99645.19;;;28.88;53.60
63739;BME280;68816;45.558;10.070;2023-07-22T06:33:15;99649.94;;;28.84;56.47
63739;BME280;68816;45.558;10.070;2023-07-22T06:35:41;99650.41;;;29.18;54.60
63739;BME280;68816;45.558;10.070;2023-07-22T06:38:07;99641.28;;;29.12;53.23
63739;BME280;68816;45.558;10.070;2023-07-22T06:40:33;99647.34;;;29.26;52.38
63739;BME280;68816;45.558;10.070;2023-07-22T06:42:58;99639.44;;;29.20;54.75
63739;BME280;68816;45.558;10.070;2023-07-22T06:45:24;99643.03;;;29.32;52.75
63739;BME280;68816;45.558;10.070;2023-07-22T06:47:49;99648.25;;;29.46;52.31
63739;BME280;68816;45.558;10.070;2023-07-22T06:50:15;99655.25;;;29.33;52.55
63739;BME280;68816;45.558;10.070;2023-07-22T06:52:40;99652.78;;;29.16;52.30
63739;BME280;68816;45.558;10.070;2023-07-22T06:55:06;99653.66;;;29.35;54.53
63739;BME280;68816;45.558;10.070;2023-07-22T06:57:33;99663.69;;;29.45;52.47
63739;BME280;68816;45.558;10.070;2023-07-22T06:59:58;99662.03;;;29.44;52.12
63739;BME280;68816;45.558;10.070;2023-07-22T07:02:24;99669.22;;;29.38;51.74
63739;BME280;68816;45.558;10.070;2023-07-22T07:04:50;99668.88;;;29.59;51.61
63739;BME280;68816;45.558;10.070;2023-07-22T07:07:16;99661.94;;;29.95;50.06
63739;BME280;68816;45.558;10.070;2023-07-22T07:09:42;99661.97;;;29.41;50.07
63739;BME280;68816;45.558;10.070;2023-07-22T07:12:08;99664.91;;;29.63;50.44
63739;BME280;68816;45.558;10.070;2023-07-22T07:14:34;99662.78;;;29.95;49.95
63739;BME280;68816;45.558;10.070;2023-07-22T07:17:00;99667.09;;;29.70;48.95
63739;BME280;68816;45.558;10.070;2023-07-22T07:19:26;99662.16;;;29.86;48.67
63739;BME280;68816;45.558;10.070;2023-07-22T07:21:52;99667.81;;;30.21;47.88
63739;BME280;68816;45.558;10.070;2023-07-22T07:24:17;99669.47;;;30.22;47.77
63739;BME280;68816;45.558;10.070;2023-07-22T07:26:43;99674.19;;;30.14;47.55
63739;BME280;68816;45.558;10.070;2023-07-22T07:29:09;99686.94;;;30.01;47.54
63739;BME280;68816;45.558;10.070;2023-07-22T07:31:37;99684.56;;;30.03;45.89
63739;BME280;68816;45.558;10.070;2023-07-22T07:34:03;99684.31;;;30.50;46.64
63739;BME280;68816;45.558;10.070;2023-07-22T07:36:28;99684.75;;;30.52;46.38
63739;BME280;68816;45.558;10.070;2023-07-22T07:38:54;99693.78;;;30.54;44.45
63739;BME280;68816;45.558;10.070;2023-07-22T07:41:21;99690.53;;;30.56;44.55
63739;BME280;68816;45.558;10.070;2023-07-22T07:43:46;99695.16;;;30.64;44.39
63739;BME280;68816;45.558;10.070;2023-07-22T07:46:20;99689.69;;;30.75;44.02
63739;BME280;68816;45.558;10.070;2023-07-22T07:48:51;99696.16;;;30.52;44.24
63739;BME280;68816;45.558;10.070;2023-07-22T07:51:18;99691.38;;;30.56;45.04
63739;BME280;68816;45.558;10.070;2023-07-22T07:53:45;99692.53;;;30.75;44.97
63739;BME280;68816;45.558;10.070;2023-07-22T07:56:13;99691.91;;;30.85;46.12
63739;BME280;68816;45.558;10.070;2023-07-22T07:58:39;99690.63;;;31.05;45.82
63739;BME280;68816;45.558;10.070;2023-07-22T08:01:05;99687.06;;;30.89;43.93
63739;BME280;68816;45.558;10.070;2023-07-22T08:03:32;99688.91;;;30.78;43.95
63739;BME280;68816;45.558;10.070;2023-07-22T08:05:57;99692.72;;;30.24;44.62
63739;BME280;68816;45.558;10.070;2023-07-22T08:08:23;99705.31;;;30.23;45.34
63739;BME280;68816;45.558;10.070;2023-07-22T08:11:09;99695.31;;;30.94;44.49
63739;BME280;68816;45.558;10.070;2023-07-22T08:13:36;99695.28;;;31.39;43.65
63739;BME280;68816;45.558;10.070;2023-07-22T08:16:03;99689.16;;;31.64;42.94
63739;BME280;68816;45.558;10.070;2023-07-22T08:18:32;99689.16;;;31.64;42.25
63739;BME280;68816;45.558;10.070;2023-07-22T08:20:58;99683.88;;;31.66;42.17
63739;BME280;68816;45.558;10.070;2023-07-22T08:23:24;99677.28;;;31.62;43.07
63739;BME280;68816;45.558;10.070;2023-07-22T08:25:50;99676.38;;;31.84;42.50
63739;BME280;68816;45.558;10.070;2023-07-22T08:28:16;99671.38;;;31.77;41.59
63739;BME280;68816;45.558;10.070;2023-07-22T08:30:41;99668.66;;;31.88;41.14
63739;BME280;68816;45.558;10.070;2023-07-22T08:33:08;99675.78;;;31.45;40.33
63739;BME280;68816;45.558;10.070;2023-07-22T08:35:34;99673.22;;;31.93;39.92
63739;BME280;68816;45.558;10.070;2023-07-22T08:38:00;99670.50;;;32.03;39.37
63739;BME280;68816;45.558;10.070;2023-07-22T08:40:27;99675.97;;;31.07;40.01
63739;BME280;68816;45.558;10.070;2023-07-22T08:42:57;99676.16;;;31.70;40.43
63739;BME280;68816;45.558;10.070;2023-07-22T08:45:26;99668.09;;;31.49;40.38
63739;BME280;68816;45.558;10.070;2023-07-22T08:47:54;99670.66;;;31.84;39.21
63739;BME280;68816;45.558;10.070;2023-07-22T08:50:26;99669.63;;;31.99;40.10
63739;BME280;68816;45.558;10.070;2023-07-22T08:52:54;99669.06;;;32.53;38.50
63739;BME280;68816;45.558;10.070;2023-07-22T08:55:20;99664.91;;;32.47;38.24
63739;BME280;68816;45.558;10.070;2023-07-22T08:57:48;99649.19;;;32.31;38.28
63739;BME280;68816;45.558;10.070;2023-07-22T09:00:14;99653.75;;;32.39;38.80
63739;BME280;68816;45.558;10.070;2023-07-22T09:02:40;99650.13;;;32.42;37.63
63739;BME280;68816;45.558;10.070;2023-07-22T09:05:06;99654.09;;;32.30;38.40
63739;BME280;68816;45.558;10.070;2023-07-22T09:07:33;99649.84;;;32.17;39.50
63739;BME280;68816;45.558;10.070;2023-07-22T09:09:59;99665.63;;;31.74;38.73
63739;BME280;68816;45.558;10.070;2023-07-22T09:12:25;99670.34;;;31.93;38.56
63739;BME280;68816;45.558;10.070;2023-07-22T09:14:52;99663.94;;;31.47;38.23
63739;BME280;68816;45.558;10.070;2023-07-22T09:17:17;99685.13;;;31.16;39.72
63739;BME280;68816;45.558;10.070;2023-07-22T09:19:43;99711.22;;;31.14;40.84
63739;BME280;68816;45.558;10.070;2023-07-22T09:22:08;99702.69;;;31.18;41.22
63739;BME280;68816;45.558;10.070;2023-07-22T09:24:33;99674.56;;;30.97;39.72
63739;BME280;68816;45.558;10.070;2023-07-22T09:26:59;99677.28;;;30.67;40.66
63739;BME280;68816;45.558;10.070;2023-07-22T09:29:38;99695.94;;;30.84;40.95
63739;BME280;68816;45.558;10.070;2023-07-22T09:32:05;99702.56;;;30.46;41.50
63739;BME280;68816;45.558;10.070;2023-07-22T09:34:30;99675.31;;;30.48;41.83
63739;BME280;68816;45.558;10.070;2023-07-22T09:36:58;99694.13;;;30.53;41.25
63739;BME280;68816;45.558;10.070;2023-07-22T09:39:26;99693.03;;;30.57;42.32
63739;BME280;68816;45.558;10.070;2023-07-22T09:41:52;99664.78;;;30.33;43.07
63739;BME280;68816;45.558;10.070;2023-07-22T09:44:21;99663.41;;;30.46;41.16
63739;BME280;68816;45.558;10.070;2023-07-22T09:46:48;99652.94;;;30.50;42.66
63739;BME280;68816;45.558;10.070;2023-07-22T09:49:16;99672.50;;;30.52;42.09
63739;BME280;68816;45.558;10.070;2023-07-22T09:51:41;99661.16;;;30.55;42.84
63739;BME280;68816;45.558;10.070;2023-07-22T09:54:07;99655.31;;;30.48;42.69
63739;BME280;68816;45.558;10.070;2023-07-22T09:56:46;99636.47;;;30.44;42.50
63739;BME280;68816;45.558;10.070;2023-07-22T09:59:12;99642.91;;;30.41;42.74
63739;BME280;68816;45.558;10.070;2023-07-22T10:01:38;99669.31;;;30.15;42.76
63739;BME280;68816;45.558;10.070;2023-07-22T10:04:05;99668.13;;;29.97;43.01
63739;BME280;68816;45.558;10.070;2023-07-22T10:06:32;99632.06;;;30.27;44.72
63739;BME280;68816;45.558;10.070;2023-07-22T10:09:05;99647.69;;;29.95;42.80
63739;BME280;68816;45.558;10.070;2023-07-22T10:11:35;99685.03;;;29.90;42.67
63739;BME280;68816;45.558;10.070;2023-07-22T10:14:04;99676.75;;;30.00;42.99
63739;BME280;68816;45.558;10.070;2023-07-22T10:16:30;99689.03;;;29.50;43.43
63739;BME280;68816;45.558;10.070;2023-07-22T10:18:57;99698.72;;;29.14;45.49
63739;BME280;68816;45.558;10.070;2023-07-22T10:21:24;99699.69;;;29.53;44.94
63739;BME280;68816;45.558;10.070;2023-07-22T10:23:50;99697.59;;;29.19;46.14
63739;BME280;68816;45.558;10.070;2023-07-22T10:26:17;99699.78;;;29.25;46.67
63739;BME280;68816;45.558;10.070;2023-07-22T10:28:44;99685.91;;;29.55;46.92
63739;BME280;68816;45.558;10.070;2023-07-22T10:31:11;99671.69;;;29.74;49.93
63739;BME280;68816;45.558;10.070;2023-07-22T10:33:38;99658.88;;;30.23;48.56
63739;BME280;68816;45.558;10.070;2023-07-22T10:38:30;99682.19;;;30.47;47.75
63739;BME280;68816;45.558;10.070;2023-07-22T10:40:57;99685.97;;;30.32;49.55
63739;BME280;68816;45.558;10.070;2023-07-22T10:43:31;99682.13;;;30.05;48.63
63739;BME280;68816;45.558;10.070;2023-07-22T10:45:58;99671.16;;;29.88;49.11
63739;BME280;68816;45.558;10.070;2023-07-22T10:48:29;99669.28;;;30.53;48.29
63739;BME280;68816;45.558;10.070;2023-07-22T10:51:06;99657.09;;;31.02;46.84
63739;BME280;68816;45.558;10.070;2023-07-22T10:53:32;99658.59;;;31.15;46.33
63739;BME280;68816;45.558;10.070;2023-07-22T11:04:25;99656.38;;;31.88;42.92
63739;BME280;68816;45.558;10.070;2023-07-22T11:07:05;99648.00;;;32.02;40.97
63739;BME280;68816;45.558;10.070;2023-07-22T11:12:04;99647.06;;;31.94;42.85
63739;BME280;68816;45.558;10.070;2023-07-22T11:14:35;99642.75;;;32.41;40.65
63739;BME280;68816;45.558;10.070;2023-07-22T11:17:03;99645.41;;;32.60;40.65
63739;BME280;68816;45.558;10.070;2023-07-22T11:19:30;99643.78;;;32.62;40.51
63739;BME280;68816;45.558;10.070;2023-07-22T11:21:56;99656.63;;;32.72;41.73
63739;BME280;68816;45.558;10.070;2023-07-22T11:24:23;99650.16;;;32.82;39.61
63739;BME280;68816;45.558;10.070;2023-07-22T11:26:49;99653.09;;;32.89;40.42
63739;BME280;68816;45.558;10.070;2023-07-22T11:29:15;99652.41;;;33.07;39.00
63739;BME280;68816;45.558;10.070;2023-07-22T11:31:43;99656.44;;;33.50;38.93
63739;BME280;68816;45.558;10.070;2023-07-22T11:34:14;99654.38;;;33.50;38.90
63739;BME280;68816;45.558;10.070;2023-07-22T11:36:40;99656.84;;;33.48;38.16
63739;BME280;68816;45.558;10.070;2023-07-22T11:39:11;99650.66;;;33.42;38.37
63739;BME280;68816;45.558;10.070;2023-07-22T11:41:39;99661.63;;;33.30;38.15
63739;BME280;68816;45.558;10.070;2023-07-22T11:44:07;99653.00;;;33.26;38.02
63739;BME280;68816;45.558;10.070;2023-07-22T11:46:35;99653.81;;;33.27;39.28
63739;BME280;68816;45.558;10.070;2023-07-22T11:49:02;99649.78;;;33.31;37.85
63739;BME280;68816;45.558;10.070;2023-07-22T11:51:28;99647.91;;;33.64;37.98
63739;BME280;68816;45.558;10.070;2023-07-22T11:53:54;99645.56;;;33.80;38.54
63739;BME280;68816;45.558;10.070;2023-07-22T11:56:20;99643.25;;;33.38;36.80
63739;BME280;68816;45.558;10.070;2023-07-22T11:58:54;99652.13;;;33.80;37.77
63739;BME280;68816;45.558;10.070;2023-07-22T12:01:20;99642.34;;;33.92;37.62
63739;BME280;68816;45.558;10.070;2023-07-22T12:03:46;99638.44;;;34.32;36.77
63739;BME280;68816;45.558;10.070;2023-07-22T12:06:13;99631.50;;;34.47;36.08
63739;BME280;68816;45.558;10.070;2023-07-22T12:08:49;99626.59;;;34.51;36.75
63739;BME280;68816;45.558;10.070;2023-07-22T12:11:24;99635.00;;;33.95;36.79
63739;BME280;68816;45.558;10.070;2023-07-22T12:14:10;99625.28;;;34.31;36.80
63739;BME280;68816;45.558;10.070;2023-07-22T12:16:37;99615.06;;;34.30;37.16
63739;BME280;68816;45.558;10.070;2023-07-22T12:19:04;99617.09;;;34.33;37.41
63739;BME280;68816;45.558;10.070;2023-07-22T12:21:29;99613.88;;;34.67;35.95
63739;BME280;68816;45.558;10.070;2023-07-22T12:23:55;99622.09;;;34.65;34.93
63739;BME280;68816;45.558;10.070;2023-07-22T12:26:20;99617.19;;;34.72;35.47
63739;BME280;68816;45.558;10.070;2023-07-22T12:28:46;99605.31;;;34.81;34.07
63739;BME280;68816;45.558;10.070;2023-07-22T12:31:12;99601.13;;;34.46;34.12
63739;BME280;68816;45.558;10.070;2023-07-22T12:33:37;99602.38;;;34.67;34.14
63739;BME280;68816;45.558;10.070;2023-07-22T12:36:03;99603.25;;;34.71;34.71
63739;BME280;68816;45.558;10.070;2023-07-22T12:38:29;99590.91;;;34.84;34.23
63739;BME280;68816;45.558;10.070;2023-07-22T12:40:54;99598.72;;;34.70;33.42
63739;BME280;68816;45.558;10.070;2023-07-22T12:43:19;99588.06;;;34.88;34.94
63739;BME280;68816;45.558;10.070;2023-07-22T12:45:45;99592.53;;;35.07;34.21
63739;BME280;68816;45.558;10.070;2023-07-22T12:48:10;99594.16;;;35.18;34.03
63739;BME280;68816;45.558;10.070;2023-07-22T12:50:36;99592.56;;;35.21;33.74
63739;BME280;68816;45.558;10.070;2023-07-22T12:53:02;99594.19;;;35.32;32.88
63739;BME280;68816;45.558;10.070;2023-07-22T12:55:28;99588.84;;;35.34;32.64
63739;BME280;68816;45.558;10.070;2023-07-22T12:57:54;99584.31;;;35.30;33.09
63739;BME280;68816;45.558;10.070;2023-07-22T13:00:20;99573.22;;;35.35;32.99